Weather at Habonim Airfield

Public forecast

Using degrees Celsius for public forecast. Weather courtesy of forecast.io.

Closest aviation weather report (METAR) to Habonim Airfield

Closest report is Haifa International Airport, 11.1 nm (20.5 km) NNE.

2024/05/23 01:50 (retrieved 54 minutes ago)

LLHA 230150Z AUTO VRB02KT 8000 NSC 22/19 Q1010

Closest aviation forecast (TAF) to Habonim Airfield

Forecast is more than 12 hours old.

Closest forecast is Hmeimim Air Base, 172.7 nm (319.9 km) NNE.

2024/05/21 06:00 (retrieved 2 days ago)

TAF OSLK 210500Z 2106/2206 23008KT CAVOK BECMG 2120/2122 09005KT CAVOK